createdAt,value
2023-03-20T00:01:33.440Z,101881.31
2023-03-20T00:04:08.059Z,101888.09
2023-03-20T00:07:12.888Z,101878.81
2023-03-20T00:10:06.194Z,101879.19
2023-03-20T00:12:36.961Z,101886.44
2023-03-20T00:15:29.696Z,101873.31
2023-03-20T00:18:23.260Z,101861.34
2023-03-20T00:21:08.726Z,101871.34
2023-03-20T00:24:06.187Z,101866.63
2023-03-20T00:27:00.389Z,101859.50
2023-03-20T00:29:38.902Z,101856.56
2023-03-20T00:32:25.746Z,101857.16
2023-03-20T00:35:33.401Z,101844.81
2023-03-20T00:38:23.690Z,101856.44
2023-03-20T00:41:15.943Z,101844.50
2023-03-20T00:44:34.480Z,101846.06
2023-03-20T00:47:37.993Z,101852.88
2023-03-20T00:50:42.324Z,101847.56
2023-03-20T00:53:37.031Z,101844.19
2023-03-20T00:56:49.029Z,101838.00
2023-03-20T00:59:39.102Z,101830.44
2023-03-20T01:02:16.232Z,101825.31
2023-03-20T01:05:16.739Z,101831.84
2023-03-20T01:08:01.831Z,101834.00
2023-03-20T01:10:55.220Z,101823.09
2023-03-20T01:13:41.367Z,101827.47
2023-03-20T01:16:36.720Z,101811.22
2023-03-20T01:19:17.754Z,101817.97
2023-03-20T01:22:04.574Z,101800.06
2023-03-20T01:24:52.266Z,101801.75
2023-03-20T01:27:22.393Z,101801.50
2023-03-20T01:30:10.829Z,101794.19
2023-03-20T01:32:56.482Z,101794.94
2023-03-20T01:35:35.778Z,101802.66
2023-03-20T01:38:24.720Z,101793.09
2023-03-20T01:41:23.027Z,101795.66
2023-03-20T01:44:22.696Z,101796.50
2023-03-20T01:47:27.796Z,101785.72
2023-03-20T01:50:28.812Z,101774.66
2023-03-20T01:53:38.636Z,101783.50
2023-03-20T01:56:35.163Z,101775.41
2023-03-20T01:59:31.615Z,101776.94
2023-03-20T02:02:06.963Z,101770.91
2023-03-20T02:05:15.968Z,101774.41
2023-03-20T02:08:27.436Z,101764.03
2023-03-20T02:11:32.825Z,101760.63
2023-03-20T02:14:25.562Z,101758.97
2023-03-20T02:17:17.182Z,101757.88
2023-03-20T02:20:33.810Z,101761.94
2023-03-20T02:24:06.403Z,101751.28
2023-03-20T02:27:12.616Z,101743.31
2023-03-20T02:30:41.782Z,101737.72
2023-03-20T02:34:18.514Z,101737.47
2023-03-20T02:37:30.172Z,101733.00
2023-03-20T02:40:51.869Z,101737.19
2023-03-20T02:43:59.340Z,101739.00
2023-03-20T02:47:15.652Z,101729.22
2023-03-20T02:50:25.646Z,101736.09
2023-03-20T02:53:38.092Z,101738.75
2023-03-20T02:56:48.481Z,101730.19
2023-03-20T02:59:51.881Z,101731.88
2023-03-20T03:02:27.632Z,101728.09
2023-03-20T03:05:25.307Z,101726.00
2023-03-20T03:08:13.954Z,101716.50
2023-03-20T03:11:05.653Z,101725.16
2023-03-20T03:13:53.835Z,101724.06
2023-03-20T03:16:40.112Z,101716.78
2023-03-20T03:19:32.349Z,101721.81
2023-03-20T03:22:10.056Z,101721.81
2023-03-20T03:24:59.933Z,101724.66
2023-03-20T03:27:51.550Z,101717.75
2023-03-20T03:30:40.378Z,101707.13
2023-03-20T03:33:39.091Z,101713.72
2023-03-20T03:36:41.429Z,101717.94
2023-03-20T03:39:29.544Z,101712.31
2023-03-20T03:42:26.094Z,101708.69
2023-03-20T03:45:20.490Z,101707.00
2023-03-20T03:48:11.339Z,101712.31
2023-03-20T03:51:03.141Z,101708.41
2023-03-20T03:54:18.777Z,101701.97
2023-03-20T03:57:23.232Z,101709.81
2023-03-20T04:00:15.105Z,101695.94
2023-03-20T04:03:02.738Z,101705.91
2023-03-20T04:05:58.177Z,101701.28
2023-03-20T04:08:49.362Z,101700.31
2023-03-20T04:11:40.491Z,101698.63
2023-03-20T04:14:27.189Z,101694.13
2023-03-20T04:17:05.394Z,101693.28
2023-03-20T04:19:37.148Z,101698.91
2023-03-20T04:22:18.552Z,101696.38
2023-03-20T04:25:05.475Z,101698.19
2023-03-20T04:27:57.706Z,101691.88
2023-03-20T04:31:14.412Z,101697.81
2023-03-20T04:34:38.003Z,101704.78
2023-03-20T04:37:39.530Z,101690.50
2023-03-20T04:40:31.874Z,101690.38
2023-03-20T04:43:37.525Z,101696.41
2023-03-20T04:46:27.679Z,101694.72
2023-03-20T04:49:37.557Z,101689.09
2023-03-20T04:52:25.454Z,101683.50
2023-03-20T04:55:37.811Z,101686.31
2023-03-20T04:58:36.263Z,101695.88
2023-03-20T05:01:22.435Z,101688.00
2023-03-20T05:04:15.681Z,101688.00
2023-03-20T05:06:53.550Z,101695.03
2023-03-20T05:09:38.740Z,101696.41
2023-03-20T05:12:25.018Z,101690.84
2023-03-20T05:15:40.804Z,101686.38
2023-03-20T05:18:56.487Z,101685.22
2023-03-20T05:21:58.223Z,101675.16
2023-03-20T05:25:17.753Z,101674.19
2023-03-20T05:28:16.000Z,101670.66
2023-03-20T05:31:23.139Z,101668.69
2023-03-20T05:34:19.018Z,101672.34
2023-03-20T05:37:33.780Z,101670.66
2023-03-20T05:40:38.177Z,101667.28
2023-03-20T05:43:39.854Z,101672.63
2023-03-20T05:46:31.346Z,101681.72
2023-03-20T05:49:37.943Z,101671.72
2023-03-20T05:52:42.051Z,101672.56
2023-03-20T05:55:45.307Z,101678.75
2023-03-20T05:59:10.069Z,101671.44
2023-03-20T06:02:30.437Z,101670.34
2023-03-20T06:05:17.584Z,101662.22
2023-03-20T06:08:19.164Z,101664.59
2023-03-20T06:10:58.985Z,101666.41
2023-03-20T06:13:29.138Z,101660.41
2023-03-20T06:16:38.553Z,101651.13
2023-03-20T06:19:25.851Z,101666.41
2023-03-20T06:22:06.907Z,101658.56
2023-03-20T06:24:57.028Z,101660.53
2023-03-20T06:27:37.758Z,101656.72
2023-03-20T06:30:27.289Z,101646.06
2023-03-20T06:33:32.781Z,101661.06
2023-03-20T06:36:34.124Z,101664.16
2023-03-20T06:39:38.281Z,101668.25
2023-03-20T06:42:41.375Z,101666.81
2023-03-20T06:45:34.604Z,101656.16
2023-03-20T06:48:58.199Z,101672.13
2023-03-20T06:51:41.339Z,101669.66
2023-03-20T06:54:34.844Z,101665.56
2023-03-20T06:57:38.102Z,101671.88
2023-03-20T07:00:25.415Z,101678.59
2023-03-20T07:03:10.683Z,101688.84
2023-03-20T07:05:54.870Z,101691.38
2023-03-20T07:08:30.092Z,101674.13
2023-03-20T07:11:20.251Z,101670.03
2023-03-20T07:14:09.952Z,101674.88
2023-03-20T07:17:21.436Z,101670.75
2023-03-20T07:20:07.572Z,101660.78
2023-03-20T07:22:55.894Z,101675.66
2023-03-20T07:25:42.817Z,101667.13
2023-03-20T07:28:35.136Z,101667.00
2023-03-20T07:31:29.563Z,101675.84
2023-03-20T07:34:19.087Z,101675.00
2023-03-20T07:36:58.829Z,101686.72
2023-03-20T07:39:39.615Z,101680.56
2023-03-20T07:43:07.883Z,101677.66
2023-03-20T07:46:29.681Z,101678.22
2023-03-20T07:49:20.947Z,101672.63
2023-03-20T07:52:00.794Z,101679.34
2023-03-20T07:54:52.348Z,101675.56
2023-03-20T07:57:25.499Z,101678.09
2023-03-20T08:00:00.533Z,101683.13
2023-03-20T08:02:47.796Z,101681.47
2023-03-20T08:05:39.770Z,101686.34
2023-03-20T08:08:09.612Z,101686.91
2023-03-20T08:10:55.792Z,101688.47
2023-03-20T08:13:32.872Z,101691.97
2023-03-20T08:16:14.741Z,101690.00
2023-03-20T08:19:19.446Z,101689.84
2023-03-20T08:22:03.742Z,101694.91
2023-03-20T08:24:38.641Z,101684.13
2023-03-20T08:27:37.378Z,101693.09
2023-03-20T08:30:44.324Z,101691.13
2023-03-20T08:33:38.947Z,101683.00
2023-03-20T08:36:21.905Z,101682.00
2023-03-20T08:38:59.108Z,101683.97
2023-03-20T08:41:39.020Z,101680.34
2023-03-20T08:44:37.789Z,101680.88
2023-03-20T08:47:08.717Z,101686.91
2023-03-20T08:49:42.147Z,101692.81
2023-03-20T08:52:16.959Z,101693.66
2023-03-20T08:55:09.315Z,101690.81
2023-03-20T08:57:48.206Z,101697.13
2023-03-20T09:00:32.996Z,101695.88
2023-03-20T09:03:21.026Z,101694.34
2023-03-20T09:06:00.039Z,101704.28
2023-03-20T09:08:37.447Z,101703.00
2023-03-20T09:11:31.149Z,101697.25
2023-03-20T09:14:31.429Z,101698.94
2023-03-20T09:17:32.770Z,101697.53
2023-03-20T09:20:18.366Z,101690.38
2023-03-20T09:23:05.588Z,101695.84
2023-03-20T09:25:42.357Z,101705.66
2023-03-20T09:28:18.652Z,101690.50
2023-03-20T09:31:03.052Z,101695.53
2023-03-20T09:33:46.921Z,101703.84
2023-03-20T09:36:19.115Z,101705.53
2023-03-20T09:39:00.847Z,101697.53
2023-03-20T09:41:57.255Z,101701.16
2023-03-20T09:44:54.250Z,101700.06
2023-03-20T09:47:42.279Z,101708.19
2023-03-20T09:50:54.311Z,101708.72
2023-03-20T09:53:29.794Z,101705.09
2023-03-20T09:56:24.428Z,101703.53
2023-03-20T09:59:09.448Z,101703.78
2023-03-20T10:01:47.541Z,101707.00
2023-03-20T10:04:52.881Z,101719.38
2023-03-20T10:07:39.470Z,101713.19
2023-03-20T10:10:21.698Z,101712.34
2023-03-20T10:13:09.369Z,101712.03
2023-03-20T10:16:06.375Z,101713.72
2023-03-20T10:18:50.692Z,101715.69
2023-03-20T10:21:42.627Z,101706.84
2023-03-20T10:24:55.607Z,101715.69
2023-03-20T10:27:29.051Z,101710.66
2023-03-20T10:30:34.633Z,101695.19
2023-03-20T10:33:42.599Z,101708.66
2023-03-20T10:36:56.344Z,101704.75
2023-03-20T10:40:00.940Z,101715.13
2023-03-20T10:42:52.654Z,101711.22
2023-03-20T10:45:41.691Z,101713.75
2023-03-20T10:48:42.186Z,101705.59
2023-03-20T10:51:25.464Z,101705.59
2023-03-20T10:57:23.963Z,101699.94
2023-03-20T10:59:52.418Z,101693.63
2023-03-20T11:02:21.577Z,101695.84
2023-03-20T11:04:49.699Z,101685.41
2023-03-20T11:07:21.277Z,101687.81
2023-03-20T11:09:52.762Z,101685.84
2023-03-20T11:12:22.212Z,101693.13
2023-03-20T11:14:50.206Z,101679.41
2023-03-20T11:17:20.784Z,101680.00
2023-03-20T11:19:48.950Z,101679.59
2023-03-20T11:22:24.488Z,101682.25
2023-03-20T11:24:53.197Z,101678.91
2023-03-20T11:27:26.739Z,101676.53
2023-03-20T11:29:54.822Z,101664.97
2023-03-20T11:32:29.368Z,101672.97
2023-03-20T11:34:58.996Z,101667.41
2023-03-20T11:37:29.047Z,101681.97
2023-03-20T11:40:01.289Z,101668.78
2023-03-20T11:42:31.601Z,101665.66
2023-03-20T11:45:01.091Z,101670.41
2023-03-20T11:47:29.982Z,101662.78
2023-03-20T11:49:59.496Z,101657.69
2023-03-20T11:52:29.100Z,101658.41
2023-03-20T11:54:57.959Z,101657.56
2023-03-20T11:57:32.888Z,101657.00
2023-03-20T12:00:03.784Z,101653.22
2023-03-20T12:02:32.918Z,101649.56
2023-03-20T12:05:01.273Z,101640.56
2023-03-20T12:07:30.784Z,101648.56
2023-03-20T12:09:59.564Z,101650.41
2023-03-20T12:12:37.718Z,101645.34
2023-03-20T12:15:09.489Z,101646.19
2023-03-20T12:17:42.394Z,101644.50
2023-03-20T12:20:16.298Z,101639.16
2023-03-20T12:22:48.838Z,101639.16
2023-03-20T12:25:21.463Z,101635.50
2023-03-20T12:27:54.051Z,101637.47
2023-03-20T12:30:27.133Z,101632.13
2023-03-20T12:32:57.745Z,101631.47
2023-03-20T12:35:28.556Z,101620.63
2023-03-20T12:37:56.645Z,101625.16
2023-03-20T12:40:27.945Z,101626.50
2023-03-20T12:43:03.308Z,101624.22
2023-03-20T12:45:35.342Z,101629.28
2023-03-20T12:48:28.951Z,101633.63
2023-03-20T12:50:58.145Z,101627.03
2023-03-20T12:53:41.739Z,101626.75
2023-03-20T12:56:18.237Z,101622.53
2023-03-20T12:58:49.413Z,101630.53
2023-03-20T13:01:20.516Z,101619.72
2023-03-20T13:04:10.123Z,101606.22
2023-03-20T13:06:42.257Z,101597.25
2023-03-20T13:09:33.598Z,101605.94
2023-03-20T13:12:03.865Z,101608.44
2023-03-20T13:14:43.049Z,101603.66
2023-03-20T13:17:15.251Z,101596.63
2023-03-20T13:19:45.385Z,101604.50
2023-03-20T13:22:15.869Z,101598.59
2023-03-20T13:24:46.042Z,101599.59
2023-03-20T13:27:27.543Z,101604.25
2023-03-20T13:29:59.421Z,101593.16
2023-03-20T13:32:32.948Z,101599.53
2023-03-20T13:35:23.513Z,101594.47
2023-03-20T13:37:53.019Z,101596.78
2023-03-20T13:40:22.640Z,101590.03
2023-03-20T13:42:54.802Z,101580.34
2023-03-20T13:45:32.018Z,101572.34
2023-03-20T13:48:02.775Z,101578.50
2023-03-20T13:50:39.368Z,101579.06
2023-03-20T13:53:12.799Z,101572.03
2023-03-20T13:55:44.525Z,101562.22
2023-03-20T13:58:20.552Z,101558.78
2023-03-20T14:00:51.463Z,101571.16
2023-03-20T14:03:20.671Z,101557.63
2023-03-20T14:05:48.922Z,101556.50
2023-03-20T14:08:43.423Z,101556.19
2023-03-20T14:11:16.597Z,101556.88
2023-03-20T14:13:46.517Z,101556.88
2023-03-20T14:16:18.424Z,101548.47
2023-03-20T14:18:46.946Z,101552.84
2023-03-20T14:21:15.869Z,101556.81
2023-03-20T14:23:47.289Z,101563.56
2023-03-20T14:26:21.973Z,101561.66
2023-03-20T14:28:59.537Z,101562.25
2023-03-20T14:31:32.307Z,101554.72
2023-03-20T14:34:02.302Z,101550.50
2023-03-20T14:36:43.177Z,101556.56
2023-03-20T14:39:22.747Z,101555.34
2023-03-20T14:41:58.922Z,101550.59
2023-03-20T14:44:35.717Z,101553.41
2023-03-20T14:47:07.766Z,101543.88
2023-03-20T14:49:47.364Z,101541.91
2023-03-20T14:52:33.415Z,101540.22
2023-03-20T14:55:17.113Z,101537.69
2023-03-20T14:57:56.164Z,101530.84
2023-03-20T15:00:27.579Z,101530.47
2023-03-20T15:03:02.731Z,101522.53
2023-03-20T15:05:32.032Z,101525.91
2023-03-20T15:08:07.245Z,101525.06
2023-03-20T15:10:38.020Z,101527.03
2023-03-20T15:13:07.902Z,101520.88
2023-03-20T15:15:38.472Z,101515.28
2023-03-20T15:18:10.586Z,101520.06
2023-03-20T15:20:41.215Z,101512.06
2023-03-20T15:23:09.389Z,101516.84
2023-03-20T15:25:39.739Z,101508.72
2023-03-20T15:28:09.931Z,101502.72
2023-03-20T15:30:39.313Z,101496.81
2023-03-20T15:33:09.217Z,101495.97
2023-03-20T15:35:38.970Z,101487.00
2023-03-20T15:38:08.298Z,101479.69
2023-03-20T15:40:49.987Z,101486.72
2023-03-20T15:43:20.525Z,101481.38
2023-03-20T15:46:02.912Z,101486.72
2023-03-20T15:48:42.299Z,101488.06
2023-03-20T15:51:11.419Z,101484.19
2023-03-20T15:53:41.514Z,101478.72
2023-03-20T15:56:18.390Z,101481.66
2023-03-20T15:58:48.690Z,101482.25
2023-03-20T16:01:18.180Z,101490.84
2023-03-20T16:03:48.730Z,101485.53
2023-03-20T16:06:20.985Z,101478.50
2023-03-20T16:08:58.085Z,101475.53
2023-03-20T16:11:26.107Z,101472.72
2023-03-20T16:13:58.600Z,101476.94
2023-03-20T16:16:30.241Z,101476.38
2023-03-20T16:19:00.045Z,101470.50
2023-03-20T16:21:29.366Z,101481.69
2023-03-20T16:23:57.895Z,101477.22
2023-03-20T16:26:27.076Z,101479.03
2023-03-20T16:29:00.244Z,101478.50
2023-03-20T16:31:29.788Z,101473.31
2023-03-20T16:34:01.207Z,101462.94
2023-03-20T16:36:30.819Z,101469.44
2023-03-20T16:39:00.470Z,101469.44
2023-03-20T16:41:30.552Z,101470.53
2023-03-20T16:43:58.835Z,101466.50
2023-03-20T16:46:28.270Z,101469.91
2023-03-20T16:49:05.073Z,101482.16
2023-03-20T16:51:33.135Z,101455.63
2023-03-20T16:54:02.055Z,101453.69
2023-03-20T16:56:31.280Z,101466.56
2023-03-20T16:58:59.528Z,101453.22
2023-03-20T17:01:28.998Z,101455.19
2023-03-20T17:03:57.714Z,101458.84
2023-03-20T17:06:39.385Z,101446.81
2023-03-20T17:09:19.725Z,101438.09
2023-03-20T17:11:49.743Z,101441.75
2023-03-20T17:14:21.023Z,101441.47
2023-03-20T17:16:54.053Z,101435.88
2023-03-20T17:19:23.659Z,101438.91
2023-03-20T17:21:54.101Z,101429.63
2023-03-20T17:24:22.917Z,101425.00
2023-03-20T17:26:55.436Z,101425.97
2023-03-20T17:29:23.816Z,101415.88
2023-03-20T17:31:52.737Z,101427.38
2023-03-20T17:34:21.752Z,101423.69
2023-03-20T17:36:52.576Z,101427.06
2023-03-20T17:39:22.455Z,101423.41
2023-03-20T17:41:50.936Z,101429.44
2023-03-20T17:44:20.167Z,101427.75
2023-03-20T17:46:58.164Z,101427.63
2023-03-20T17:49:35.854Z,101428.47
2023-03-20T17:52:10.958Z,101425.09
2023-03-20T17:54:39.449Z,101422.72
2023-03-20T17:57:07.987Z,101406.06
2023-03-20T17:59:36.248Z,101420.38
2023-03-20T18:02:04.573Z,101423.69
2023-03-20T18:04:41.280Z,101408.53
2023-03-20T18:07:12.499Z,101409.09
2023-03-20T18:09:40.897Z,101412.47
2023-03-20T18:12:12.162Z,101409.09
2023-03-20T18:14:43.089Z,101405.59
2023-03-20T18:17:14.198Z,101398.44
2023-03-20T18:19:42.749Z,101403.44
2023-03-20T18:22:12.877Z,101402.47
2023-03-20T18:24:45.552Z,101401.47
2023-03-20T18:27:13.850Z,101392.78
2023-03-20T18:29:42.065Z,101388.06
2023-03-20T18:32:10.351Z,101396.91
2023-03-20T18:34:38.467Z,101393.72
2023-03-20T18:37:09.221Z,101386.56
2023-03-20T18:39:38.805Z,101380.25
2023-03-20T18:42:07.117Z,101387.41
2023-03-20T18:44:35.301Z,101391.72
2023-03-20T18:47:03.344Z,101385.56
2023-03-20T18:49:31.715Z,101391.47
2023-03-20T18:52:00.050Z,101394.31
2023-03-20T18:54:27.962Z,101391.78
2023-03-20T18:56:59.987Z,101385.22
2023-03-20T18:59:28.162Z,101386.50
2023-03-20T19:01:56.168Z,101368.81
2023-03-20T19:04:24.155Z,101367.16
2023-03-20T19:06:52.873Z,101363.81
2023-03-20T19:09:21.694Z,101354.56
2023-03-20T19:11:49.681Z,101358.38
2023-03-20T19:14:19.476Z,101365.69
2023-03-20T19:16:47.452Z,101362.06
2023-03-20T19:19:16.229Z,101350.56
2023-03-20T19:21:44.235Z,101344.81
2023-03-20T19:24:12.572Z,101338.66
2023-03-20T19:26:40.871Z,101325.47
2023-03-20T19:29:10.636Z,101325.63
2023-03-20T19:31:40.172Z,101319.78
2023-03-20T19:34:28.090Z,101318.94
2023-03-20T19:36:59.216Z,101326.47
2023-03-20T19:39:28.830Z,101311.91
2023-03-20T19:42:11.999Z,101305.88
2023-03-20T19:44:45.344Z,101303.94
2023-03-20T19:47:15.132Z,101297.19
2023-03-20T19:49:44.838Z,101303.19
2023-03-20T19:52:16.373Z,101298.47
2023-03-20T19:54:59.917Z,101305.34
2023-03-20T19:57:30.149Z,101295.53
2023-03-20T20:00:43.880Z,101291.78
2023-03-20T20:02:49.441Z,101285.75
2023-03-20T20:05:21.260Z,101303.41
2023-03-20T20:10:44.498Z,101291.69
2023-03-20T20:13:16.250Z,101294.47
2023-03-20T20:15:46.225Z,101295.31
2023-03-20T20:18:16.637Z,101295.31
2023-03-20T20:21:31.935Z,101294.19
2023-03-20T20:23:38.286Z,101290.28
2023-03-20T20:26:09.539Z,101292.78
2023-03-20T20:28:37.585Z,101291.69
2023-03-20T20:31:06.019Z,101292.28
2023-03-20T20:33:36.789Z,101285.94
2023-03-20T20:37:01.865Z,101280.47
2023-03-20T20:38:59.579Z,101285.50
2023-03-20T20:41:29.706Z,101278.38
2023-03-20T20:44:17.146Z,101261.69
2023-03-20T20:46:46.103Z,101261.16
2023-03-20T20:49:19.787Z,101266.16
2023-03-20T20:51:49.302Z,101253.19
2023-03-20T20:54:17.295Z,101256.97
2023-03-20T20:56:45.414Z,101252.63
2023-03-20T20:59:13.516Z,101249.94
2023-03-20T21:01:41.702Z,101241.59
2023-03-20T21:04:10.317Z,101249.84
2023-03-20T21:09:31.657Z,101244.13
2023-03-20T21:12:01.100Z,101239.09
2023-03-20T21:14:29.045Z,101236.03
2023-03-20T21:17:01.523Z,101236.84
2023-03-20T21:19:30.103Z,101235.19
2023-03-20T21:21:59.476Z,101236.16
2023-03-20T21:24:34.080Z,101235.47
2023-03-20T21:27:03.155Z,101221.75
2023-03-20T21:29:31.091Z,101226.94
2023-03-20T21:31:59.218Z,101233.38
2023-03-20T21:34:28.988Z,101234.38
2023-03-20T21:36:59.647Z,101232.41
2023-03-20T21:39:32.747Z,101234.09
2023-03-20T21:42:01.254Z,101225.13
2023-03-20T21:48:04.300Z,101212.50
2023-03-20T21:50:59.217Z,101203.25
2023-03-20T22:01:58.566Z,101198.34
2023-03-20T22:05:10.922Z,101192.88
2023-03-20T22:07:38.441Z,101198.19
2023-03-20T22:16:27.080Z,101197.91
2023-03-20T22:30:34.521Z,101133.06
2023-03-20T22:46:45.902Z,101144.53
2023-03-20T22:49:13.128Z,101155.19
2023-03-20T22:51:55.631Z,101137.84
2023-03-20T22:54:29.590Z,101142.50
2023-03-20T22:56:57.517Z,101143.47
2023-03-20T22:59:25.623Z,101143.75
2023-03-20T23:01:56.169Z,101135.94
2023-03-20T23:04:24.299Z,101143.75
2023-03-20T23:06:54.136Z,101137.78
2023-03-20T23:09:22.126Z,101145.06
2023-03-20T23:11:50.068Z,101129.78
2023-03-20T23:14:21.475Z,101129.78
2023-03-20T23:16:50.105Z,101119.13
2023-03-20T23:19:20.768Z,101126.13
2023-03-20T23:21:48.765Z,101117.47
2023-03-20T23:24:17.158Z,101127.13
2023-03-20T23:26:45.573Z,101108.50
2023-03-20T23:29:14.218Z,101110.97
2023-03-20T23:31:42.220Z,101106.19
2023-03-20T23:34:10.608Z,101114.88
2023-03-20T23:36:40.405Z,101114.56
2023-03-20T23:39:09.342Z,101111.63
2023-03-20T23:44:25.525Z,101084.50
2023-03-20T23:46:54.664Z,101081.72
2023-03-20T23:49:23.348Z,101073.72
2023-03-20T23:51:52.784Z,101069.09
2023-03-20T23:54:22.099Z,101072.75
2023-03-20T23:56:50.678Z,101073.34
2023-03-20T23:59:22.260Z,101061.75
